createdAt,value
2023-04-16T00:02:02.061Z,95.80
2023-04-16T00:04:29.419Z,95.80
2023-04-16T00:06:56.393Z,95.80
2023-04-16T00:09:23.306Z,95.80
2023-04-16T00:11:50.210Z,95.80
2023-04-16T00:14:17.122Z,95.90
2023-04-16T00:16:44.092Z,95.80
2023-04-16T00:19:11.259Z,95.80
2023-04-16T00:21:38.338Z,95.80
2023-04-16T00:24:05.287Z,95.90
2023-04-16T00:26:32.188Z,95.90
2023-04-16T00:28:59.150Z,96.00
2023-04-16T00:31:31.045Z,96.00
2023-04-16T00:33:58.770Z,96.00
2023-04-16T00:36:27.374Z,96.00
2023-04-16T00:38:55.457Z,96.00
2023-04-16T00:41:23.129Z,96.00
2023-04-16T00:43:50.799Z,96.00
2023-04-16T00:46:21.263Z,96.00
2023-04-16T00:48:49.385Z,96.10
2023-04-16T00:51:16.940Z,96.10
2023-04-16T00:53:45.986Z,96.10
2023-04-16T00:56:13.727Z,96.00
2023-04-16T00:58:40.831Z,96.00
2023-04-16T01:01:07.868Z,96.00
2023-04-16T01:03:46.423Z,96.00
2023-04-16T01:06:14.823Z,96.00
2023-04-16T01:08:41.744Z,96.10
2023-04-16T01:11:09.708Z,96.10
2023-04-16T01:13:39.438Z,96.10
2023-04-16T01:16:12.729Z,96.00
2023-04-16T01:18:39.805Z,96.10
2023-04-16T01:21:06.878Z,96.10
2023-04-16T01:23:33.806Z,96.10
2023-04-16T01:26:00.853Z,96.10
2023-04-16T01:28:27.802Z,96.10
2023-04-16T01:30:54.866Z,96.10
2023-04-16T01:33:32.118Z,96.20
2023-04-16T01:35:59.149Z,96.20
2023-04-16T01:38:26.168Z,96.20
2023-04-16T01:40:59.618Z,96.30
2023-04-16T01:43:26.601Z,96.30
2023-04-16T01:46:18.893Z,96.30
2023-04-16T01:48:46.214Z,96.40
2023-04-16T01:51:13.346Z,96.30
2023-04-16T01:53:40.480Z,96.30
2023-04-16T01:56:07.484Z,96.30
2023-04-16T01:58:35.868Z,96.40
2023-04-16T02:01:02.882Z,96.40
2023-04-16T02:03:31.356Z,96.40
2023-04-16T02:05:58.531Z,96.40
2023-04-16T02:08:25.556Z,96.40
2023-04-16T02:10:52.562Z,96.40
2023-04-16T02:13:19.551Z,96.40
2023-04-16T02:15:51.349Z,96.40
2023-04-16T02:18:25.921Z,96.40
2023-04-16T02:20:53.010Z,96.30
2023-04-16T02:23:20.021Z,96.40
2023-04-16T02:25:48.169Z,96.40
2023-04-16T02:28:17.110Z,96.50
2023-04-16T02:30:46.014Z,96.50
2023-04-16T02:33:15.253Z,96.50
2023-04-16T02:35:52.489Z,96.50
2023-04-16T02:38:19.895Z,96.40
2023-04-16T02:40:46.777Z,96.40
2023-04-16T02:43:13.732Z,96.30
2023-04-16T02:45:40.792Z,96.30
2023-04-16T02:48:09.079Z,96.30
2023-04-16T02:50:36.173Z,96.30
2023-04-16T02:53:04.290Z,96.30
2023-04-16T02:55:31.241Z,96.30
2023-04-16T02:57:58.200Z,96.30
2023-04-16T03:00:25.619Z,96.30
2023-04-16T03:02:52.708Z,96.30
2023-04-16T03:05:19.874Z,96.30
2023-04-16T03:07:46.958Z,96.30
2023-04-16T03:10:15.406Z,96.30
2023-04-16T03:12:42.319Z,96.30
2023-04-16T03:15:09.750Z,96.30
2023-04-16T03:17:36.976Z,96.40
2023-04-16T03:20:05.019Z,96.40
2023-04-16T03:22:31.928Z,96.40
2023-04-16T03:24:58.814Z,96.50
2023-04-16T03:27:25.762Z,96.50
2023-04-16T03:29:53.316Z,96.50
2023-04-16T03:32:20.232Z,96.50
2023-04-16T03:34:47.196Z,96.50
2023-04-16T03:37:14.188Z,96.50
2023-04-16T03:39:41.513Z,96.40
2023-04-16T03:42:10.526Z,96.40
2023-04-16T03:44:37.514Z,96.30
2023-04-16T03:47:04.419Z,96.20
2023-04-16T03:49:31.334Z,96.20
2023-04-16T03:51:59.209Z,96.20
2023-04-16T03:54:26.844Z,96.20
2023-04-16T03:57:05.666Z,96.20
2023-04-16T03:59:33.588Z,96.20
2023-04-16T04:02:00.883Z,96.20
2023-04-16T04:04:28.074Z,96.20
2023-04-16T04:06:55.047Z,96.20
2023-04-16T04:09:23.174Z,96.30
2023-04-16T04:11:50.829Z,96.30
2023-04-16T04:14:17.979Z,96.40
2023-04-16T04:16:45.056Z,96.40
2023-04-16T04:19:12.489Z,96.40
2023-04-16T04:21:39.600Z,96.50
2023-04-16T04:24:06.684Z,96.60
2023-04-16T04:26:34.437Z,96.70
2023-04-16T04:29:01.351Z,96.60
2023-04-16T04:31:28.378Z,96.70
2023-04-16T04:33:56.164Z,96.70
2023-04-16T04:36:23.283Z,96.80
2023-04-16T04:38:50.461Z,97.10
2023-04-16T04:41:17.583Z,96.80
2023-04-16T04:43:44.506Z,96.80
2023-04-16T04:46:12.347Z,96.90
2023-04-16T04:48:40.956Z,96.90
2023-04-16T04:51:07.960Z,96.90
2023-04-16T04:53:35.099Z,97.00
2023-04-16T04:56:11.665Z,97.00
2023-04-16T04:58:40.617Z,97.10
2023-04-16T05:01:07.548Z,97.10
2023-04-16T05:03:34.659Z,97.00
2023-04-16T05:06:01.630Z,97.00
2023-04-16T05:08:28.526Z,97.00
2023-04-16T05:10:55.451Z,97.00
2023-04-16T05:13:22.389Z,97.00
2023-04-16T05:15:49.263Z,97.00
2023-04-16T05:18:16.330Z,97.00
2023-04-16T05:20:43.228Z,97.00
2023-04-16T05:23:10.152Z,97.10
2023-04-16T05:25:37.100Z,97.00
2023-04-16T05:28:04.062Z,97.00
2023-04-16T05:30:31.026Z,97.00
2023-04-16T05:32:58.034Z,97.00
2023-04-16T05:35:24.966Z,97.00
2023-04-16T05:37:51.854Z,97.00
2023-04-16T05:40:18.833Z,97.00
2023-04-16T05:42:45.744Z,97.00
2023-04-16T05:45:12.653Z,97.00
2023-04-16T05:47:39.611Z,97.00
2023-04-16T05:50:07.157Z,97.00
2023-04-16T05:52:34.049Z,97.00
2023-04-16T05:55:01.897Z,96.90
2023-04-16T05:57:29.796Z,96.90
2023-04-16T05:59:56.678Z,97.00
2023-04-16T06:02:23.736Z,97.00
2023-04-16T06:04:50.789Z,97.00
2023-04-16T06:07:17.708Z,97.00
2023-04-16T06:09:45.663Z,97.10
2023-04-16T06:12:12.663Z,97.10
2023-04-16T06:14:39.543Z,97.10
2023-04-16T06:17:06.458Z,96.90
2023-04-16T06:19:33.339Z,97.10
2023-04-16T06:22:00.305Z,97.00
2023-04-16T06:24:27.186Z,97.00
2023-04-16T06:26:54.657Z,97.00
2023-04-16T06:29:24.142Z,96.90
2023-04-16T06:31:57.620Z,96.80
2023-04-16T06:34:24.582Z,96.80
2023-04-16T06:36:52.357Z,96.80
2023-04-16T06:39:21.744Z,96.80
2023-04-16T06:41:49.339Z,96.90
2023-04-16T06:44:16.238Z,96.90
2023-04-16T06:46:43.252Z,96.90
2023-04-16T06:49:10.339Z,96.70
2023-04-16T06:51:37.988Z,96.70
2023-04-16T06:54:04.967Z,96.70
2023-04-16T06:56:32.322Z,96.70
2023-04-16T06:59:00.939Z,96.60
2023-04-16T07:01:28.555Z,96.90
2023-04-16T07:03:55.874Z,97.00
2023-04-16T07:06:22.902Z,96.70
2023-04-16T07:08:49.846Z,96.70
2023-04-16T07:11:17.153Z,96.70
2023-04-16T07:13:44.108Z,96.60
2023-04-16T07:16:11.023Z,96.60
2023-04-16T07:18:38.027Z,96.60
2023-04-16T07:21:05.034Z,96.60
2023-04-16T07:23:31.949Z,96.40
2023-04-16T07:25:58.833Z,96.40
2023-04-16T07:28:26.023Z,96.40
2023-04-16T07:30:52.933Z,96.40
2023-04-16T07:33:19.831Z,96.40
2023-04-16T07:35:47.311Z,96.30
2023-04-16T07:38:14.845Z,96.40
2023-04-16T07:40:41.717Z,96.40
2023-04-16T07:43:09.035Z,96.30
2023-04-16T07:45:36.001Z,96.00
2023-04-16T07:48:02.971Z,96.10
2023-04-16T07:50:29.880Z,96.00
2023-04-16T07:52:56.778Z,96.00
2023-04-16T07:55:23.743Z,95.90
2023-04-16T07:57:50.713Z,95.60
2023-04-16T08:00:17.826Z,95.50
2023-04-16T08:02:45.012Z,95.30
2023-04-16T08:05:12.856Z,95.50
2023-04-16T08:07:39.756Z,95.50
2023-04-16T08:10:07.436Z,95.50
2023-04-16T08:12:34.951Z,95.50
2023-04-16T08:15:01.825Z,95.60
2023-04-16T08:17:29.492Z,95.60
2023-04-16T08:19:56.450Z,95.50
2023-04-16T08:22:23.355Z,95.10
2023-04-16T08:24:50.251Z,94.80
2023-04-16T08:27:19.420Z,94.90
2023-04-16T08:29:47.575Z,94.90
2023-04-16T08:32:14.469Z,94.30
2023-04-16T08:34:42.209Z,94.50
2023-04-16T08:37:09.600Z,94.20
2023-04-16T08:39:36.682Z,94.20
2023-04-16T08:42:06.352Z,94.40
2023-04-16T08:44:37.902Z,94.30
2023-04-16T08:47:09.529Z,94.40
2023-04-16T08:49:43.538Z,94.50
2023-04-16T08:52:19.309Z,94.20
2023-04-16T08:55:07.174Z,93.60
2023-04-16T08:57:51.086Z,93.50
2023-04-16T09:00:19.205Z,93.40
2023-04-16T09:02:46.538Z,93.60
2023-04-16T09:05:20.691Z,93.50
2023-04-16T09:07:48.668Z,93.70
2023-04-16T09:10:16.552Z,93.30
2023-04-16T09:12:45.237Z,93.30
2023-04-16T09:15:13.912Z,93.10
2023-04-16T09:17:40.914Z,93.00
2023-04-16T09:20:09.373Z,92.80
2023-04-16T09:22:37.054Z,92.90
2023-04-16T09:25:04.276Z,92.70
2023-04-16T09:27:31.989Z,93.10
2023-04-16T09:29:59.285Z,93.10
2023-04-16T09:32:28.427Z,92.30
2023-04-16T09:35:02.379Z,91.80
2023-04-16T09:37:30.906Z,91.40
2023-04-16T09:40:03.931Z,91.50
2023-04-16T09:42:36.885Z,91.20
2023-04-16T09:45:06.026Z,91.10
2023-04-16T09:47:42.930Z,91.30
2023-04-16T09:50:17.775Z,91.50
2023-04-16T09:52:51.573Z,91.70
2023-04-16T09:55:23.978Z,91.60
2023-04-16T09:58:02.196Z,91.20
2023-04-16T10:00:31.347Z,91.40
2023-04-16T10:03:07.986Z,90.20
2023-04-16T10:05:35.290Z,90.20
2023-04-16T10:08:02.454Z,88.50
2023-04-16T10:10:30.205Z,88.80
2023-04-16T10:12:57.965Z,87.60
2023-04-16T10:15:25.316Z,87.00
2023-04-16T10:17:53.888Z,87.40
2023-04-16T10:20:21.039Z,87.10
2023-04-16T10:22:48.219Z,86.40
2023-04-16T10:25:15.533Z,85.90
2023-04-16T10:27:42.477Z,86.40
2023-04-16T10:30:11.265Z,85.80
2023-04-16T10:32:38.962Z,85.20
2023-04-16T10:35:06.860Z,84.20
2023-04-16T10:37:34.574Z,84.80
2023-04-16T10:40:01.716Z,85.50
2023-04-16T10:42:28.683Z,85.90
2023-04-16T10:44:59.525Z,84.20
2023-04-16T10:47:26.719Z,84.30
2023-04-16T10:49:53.686Z,84.50
2023-04-16T10:52:22.440Z,83.60
2023-04-16T10:54:49.990Z,83.80
2023-04-16T10:57:19.714Z,84.10
2023-04-16T10:59:48.717Z,83.50
2023-04-16T11:02:19.622Z,82.90
2023-04-16T11:04:49.215Z,83.50
2023-04-16T11:07:22.622Z,84.20
2023-04-16T11:10:06.762Z,83.00
2023-04-16T11:12:42.122Z,83.20
2023-04-16T11:15:11.930Z,83.10
2023-04-16T11:17:47.879Z,82.50
2023-04-16T11:20:24.262Z,82.80
2023-04-16T11:22:56.850Z,82.80
2023-04-16T11:25:26.144Z,82.90
2023-04-16T11:27:53.651Z,83.10
2023-04-16T11:30:30.620Z,83.40
2023-04-16T11:32:57.561Z,82.10
2023-04-16T11:35:24.562Z,82.50
2023-04-16T11:37:57.155Z,82.30
2023-04-16T11:40:27.066Z,82.70
2023-04-16T11:42:53.988Z,82.80
2023-04-16T11:45:21.104Z,83.90
2023-04-16T11:47:55.144Z,82.40
2023-04-16T11:50:27.784Z,82.30
2023-04-16T11:53:05.444Z,82.20
2023-04-16T11:55:32.386Z,82.70
2023-04-16T11:58:12.934Z,82.40
2023-04-16T12:00:41.594Z,80.90
2023-04-16T12:03:08.745Z,81.60
2023-04-16T12:05:39.345Z,82.30
2023-04-16T12:08:09.028Z,81.40
2023-04-16T12:10:52.472Z,81.20
2023-04-16T12:13:19.728Z,81.80
2023-04-16T12:15:52.073Z,81.40
2023-04-16T12:18:26.742Z,82.20
2023-04-16T12:20:54.067Z,81.20
2023-04-16T12:23:30.011Z,81.10
2023-04-16T12:26:02.551Z,81.90
2023-04-16T12:28:38.414Z,82.20
2023-04-16T12:31:06.322Z,81.70
2023-04-16T12:33:33.410Z,82.20
2023-04-16T12:36:01.556Z,81.90
2023-04-16T12:38:29.070Z,81.40
2023-04-16T12:40:57.558Z,81.10
2023-04-16T12:43:25.117Z,79.70
2023-04-16T12:45:52.148Z,80.10
2023-04-16T12:48:19.071Z,80.60
2023-04-16T12:50:46.144Z,80.20
2023-04-16T12:53:13.044Z,80.40
2023-04-16T12:55:39.951Z,80.40
2023-04-16T12:58:06.875Z,80.60
2023-04-16T13:00:33.785Z,80.20
2023-04-16T13:03:00.966Z,80.50
2023-04-16T13:05:28.017Z,79.80
2023-04-16T13:07:55.031Z,79.30
2023-04-16T13:10:23.450Z,79.60
2023-04-16T13:12:50.345Z,80.50
2023-04-16T13:15:17.277Z,79.90
2023-04-16T13:17:44.247Z,81.20
2023-04-16T13:20:11.344Z,79.90
2023-04-16T13:22:39.274Z,79.80
2023-04-16T13:25:07.005Z,80.50
2023-04-16T13:27:33.891Z,80.20
2023-04-16T13:30:00.915Z,80.70
2023-04-16T13:32:27.888Z,79.50
2023-04-16T13:34:55.021Z,79.80
2023-04-16T13:37:21.904Z,79.90
2023-04-16T13:39:48.796Z,80.40
2023-04-16T13:42:15.697Z,80.80
2023-04-16T13:44:42.706Z,80.80
2023-04-16T13:47:09.646Z,80.50
2023-04-16T13:49:36.663Z,81.20
2023-04-16T13:52:03.960Z,81.90
2023-04-16T13:54:30.934Z,81.60
2023-04-16T13:56:57.830Z,81.10
2023-04-16T13:59:24.754Z,81.20
2023-04-16T14:01:51.724Z,82.00
2023-04-16T14:04:18.801Z,81.70
2023-04-16T14:06:45.952Z,81.90
2023-04-16T14:09:13.016Z,82.00
2023-04-16T14:11:40.262Z,81.60
2023-04-16T14:14:07.157Z,81.40
2023-04-16T14:16:35.813Z,81.90
2023-04-16T14:19:02.747Z,80.80
2023-04-16T14:21:31.247Z,80.50
2023-04-16T14:23:58.160Z,80.10
2023-04-16T14:26:25.106Z,80.50
2023-04-16T14:28:52.098Z,81.20
2023-04-16T14:31:20.004Z,80.70
2023-04-16T14:33:47.160Z,80.90
2023-04-16T14:36:14.265Z,81.30
2023-04-16T14:38:43.173Z,81.70
2023-04-16T14:41:11.948Z,81.90
2023-04-16T14:43:41.194Z,81.50
2023-04-16T14:46:08.281Z,81.30
2023-04-16T14:48:35.222Z,81.40
2023-04-16T14:51:02.510Z,81.60
2023-04-16T14:53:29.432Z,81.30
2023-04-16T14:55:58.938Z,81.70
2023-04-16T14:58:26.541Z,80.20
2023-04-16T15:00:53.624Z,79.40
2023-04-16T15:03:21.037Z,79.90
2023-04-16T15:05:54.770Z,80.80
2023-04-16T15:08:22.777Z,80.60
2023-04-16T15:10:50.441Z,79.10
2023-04-16T15:13:17.714Z,79.30
2023-04-16T15:15:44.848Z,79.80
2023-04-16T15:18:11.747Z,78.90
2023-04-16T15:20:38.693Z,78.90
2023-04-16T15:23:05.858Z,78.70
2023-04-16T15:25:32.790Z,79.20
2023-04-16T15:27:59.654Z,79.90
2023-04-16T15:30:26.558Z,80.00
2023-04-16T15:32:55.018Z,79.80
2023-04-16T15:35:22.131Z,79.10
2023-04-16T15:37:49.004Z,78.10
2023-04-16T15:40:18.713Z,78.60
2023-04-16T15:42:45.651Z,79.10
2023-04-16T15:45:12.551Z,80.10
2023-04-16T15:47:41.696Z,80.80
2023-04-16T15:50:09.075Z,81.00
2023-04-16T15:52:36.417Z,80.80
2023-04-16T15:55:04.385Z,80.50
2023-04-16T15:57:31.496Z,80.90
2023-04-16T16:02:30.522Z,81.30
2023-04-16T16:04:57.615Z,81.70
2023-04-16T16:07:25.186Z,82.20
2023-04-16T16:09:53.086Z,82.40
2023-04-16T16:12:20.029Z,82.60
2023-04-16T16:14:47.740Z,82.50
2023-04-16T16:17:14.852Z,81.50
2023-04-16T16:19:41.750Z,81.40
2023-04-16T16:22:10.126Z,82.10
2023-04-16T16:24:37.038Z,82.30
2023-04-16T16:27:04.104Z,82.30
2023-04-16T16:29:31.274Z,82.80
2023-04-16T16:31:58.280Z,82.60
2023-04-16T16:34:26.172Z,82.40
2023-04-16T16:36:53.076Z,82.10
2023-04-16T16:39:24.274Z,82.20
2023-04-16T16:41:54.175Z,82.60
2023-04-16T16:44:21.721Z,82.80
2023-04-16T16:46:48.870Z,83.00
2023-04-16T16:49:16.870Z,83.40
2023-04-16T16:51:49.986Z,83.80
2023-04-16T16:54:16.907Z,84.20
2023-04-16T16:56:43.858Z,84.50
2023-04-16T16:59:10.928Z,84.90
2023-04-16T17:01:38.039Z,84.80
2023-04-16T17:04:05.343Z,84.40
2023-04-16T17:06:33.215Z,85.10
2023-04-16T17:09:00.932Z,84.60
2023-04-16T17:11:29.246Z,84.30
2023-04-16T17:13:56.170Z,82.90
2023-04-16T17:16:23.912Z,81.80
2023-04-16T17:18:50.848Z,81.40
2023-04-16T17:21:17.761Z,80.80
2023-04-16T17:23:44.812Z,80.80
2023-04-16T17:26:11.725Z,81.10
2023-04-16T17:28:38.650Z,81.60
2023-04-16T17:31:08.322Z,82.10
2023-04-16T17:33:35.488Z,82.40
2023-04-16T17:36:02.438Z,82.60
2023-04-16T17:38:29.367Z,83.10
2023-04-16T17:40:57.043Z,83.20
2023-04-16T17:43:24.206Z,83.50
2023-04-16T17:45:51.179Z,84.10
2023-04-16T17:48:18.168Z,84.20
2023-04-16T17:50:45.062Z,84.90
2023-04-16T17:53:12.229Z,85.40
2023-04-16T17:55:39.135Z,85.30
2023-04-16T17:58:06.196Z,85.60
2023-04-16T18:00:33.399Z,86.10
2023-04-16T18:03:00.472Z,86.20
2023-04-16T18:05:27.645Z,86.50
2023-04-16T18:07:55.610Z,86.50
2023-04-16T18:10:22.543Z,86.60
2023-04-16T18:12:49.512Z,87.00
2023-04-16T18:15:16.639Z,88.30
2023-04-16T18:17:43.601Z,87.70
2023-04-16T18:20:12.543Z,87.80
2023-04-16T18:22:39.585Z,88.30
2023-04-16T18:25:07.097Z,88.20
2023-04-16T18:27:34.380Z,88.30
2023-04-16T18:30:01.359Z,88.90
2023-04-16T18:32:31.029Z,89.00
2023-04-16T18:34:58.264Z,89.40
2023-04-16T18:37:25.196Z,89.10
2023-04-16T18:39:52.115Z,89.20
2023-04-16T18:42:19.005Z,89.70
2023-04-16T18:44:52.791Z,89.30
2023-04-16T18:47:20.027Z,89.40
2023-04-16T18:49:46.931Z,89.30
2023-04-16T18:52:13.805Z,89.20
2023-04-16T18:54:43.604Z,89.10
2023-04-16T18:57:10.579Z,89.90
2023-04-16T18:59:37.491Z,89.10
2023-04-16T19:02:04.492Z,89.20
2023-04-16T19:04:31.524Z,89.40
2023-04-16T19:06:58.484Z,89.50
2023-04-16T19:09:26.423Z,89.60
2023-04-16T19:11:53.295Z,89.60
2023-04-16T19:14:20.606Z,89.70
2023-04-16T19:16:47.584Z,89.70
2023-04-16T19:19:14.491Z,89.80
2023-04-16T19:21:41.366Z,89.90
2023-04-16T19:24:08.309Z,89.90
2023-04-16T19:26:35.229Z,90.00
2023-04-16T19:29:02.166Z,90.10
2023-04-16T19:31:29.639Z,90.20
2023-04-16T19:33:56.617Z,90.30
2023-04-16T19:36:23.544Z,90.40
2023-04-16T19:38:50.548Z,90.40
2023-04-16T19:41:17.602Z,90.50
2023-04-16T19:43:44.605Z,90.60
2023-04-16T19:46:11.580Z,90.70
2023-04-16T19:48:38.681Z,90.70
2023-04-16T19:51:05.747Z,90.90
2023-04-16T19:53:34.126Z,90.90
2023-04-16T19:56:01.065Z,90.90
2023-04-16T19:58:28.020Z,90.90
2023-04-16T20:00:55.719Z,91.00
2023-04-16T20:03:22.734Z,91.10
2023-04-16T20:05:50.067Z,91.10
2023-04-16T20:08:16.978Z,91.10
2023-04-16T20:10:43.903Z,91.00
2023-04-16T20:13:12.088Z,91.00
2023-04-16T20:15:39.037Z,91.10
2023-04-16T20:18:08.507Z,91.10
2023-04-16T20:20:37.812Z,91.20
2023-04-16T20:23:04.948Z,91.10
2023-04-16T20:25:31.850Z,91.10
2023-04-16T20:27:58.736Z,91.10
2023-04-16T20:30:29.387Z,91.10
2023-04-16T20:32:56.761Z,91.20
2023-04-16T20:35:23.704Z,91.60
2023-04-16T20:37:50.569Z,91.30
2023-04-16T20:40:17.529Z,91.50
2023-04-16T20:42:46.300Z,91.50
2023-04-16T20:45:13.494Z,91.50
2023-04-16T20:47:40.491Z,91.50
2023-04-16T20:50:08.177Z,91.50
2023-04-16T20:52:35.065Z,91.60
2023-04-16T20:55:01.943Z,91.60
2023-04-16T20:57:29.756Z,91.70
2023-04-16T20:59:56.955Z,91.80
2023-04-16T21:02:24.369Z,91.90
2023-04-16T21:04:51.734Z,92.20
2023-04-16T21:07:18.751Z,92.20
2023-04-16T21:09:45.627Z,92.20
2023-04-16T21:12:12.477Z,92.20
2023-04-16T21:14:39.347Z,92.30
2023-04-16T21:17:06.229Z,92.30
2023-04-16T21:19:33.107Z,92.40
2023-04-16T21:21:59.993Z,92.50
2023-04-16T21:24:26.860Z,92.50
2023-04-16T21:26:53.717Z,92.60
2023-04-16T21:29:20.669Z,92.70
2023-04-16T21:31:47.752Z,92.70
2023-04-16T21:34:14.715Z,92.70
2023-04-16T21:36:41.572Z,92.90
2023-04-16T21:39:08.580Z,92.90
2023-04-16T21:41:35.461Z,93.00
2023-04-16T21:44:02.426Z,93.20
2023-04-16T21:46:29.596Z,93.20
2023-04-16T21:48:56.524Z,93.30
2023-04-16T21:51:29.192Z,93.30
2023-04-16T21:53:57.027Z,93.40
2023-04-16T21:56:24.940Z,93.50
2023-04-16T21:58:51.792Z,93.50
2023-04-16T22:01:18.713Z,93.50
2023-04-16T22:03:50.526Z,93.60
2023-04-16T22:06:18.303Z,93.60
2023-04-16T22:08:45.212Z,93.60
2023-04-16T22:11:12.174Z,93.80
2023-04-16T22:13:41.955Z,93.80
2023-04-16T22:16:10.958Z,93.90
2023-04-16T22:18:38.737Z,93.90
2023-04-16T22:21:05.692Z,93.90
2023-04-16T22:23:32.595Z,93.90
2023-04-16T22:25:59.453Z,93.90
2023-04-16T22:28:26.377Z,94.00
2023-04-16T22:30:53.291Z,94.10
2023-04-16T22:33:20.287Z,94.10
2023-04-16T22:35:47.172Z,94.20
2023-04-16T22:38:14.195Z,94.20
2023-04-16T22:40:41.091Z,94.20
2023-04-16T22:43:08.003Z,94.20
2023-04-16T22:45:35.689Z,94.20
2023-04-16T22:48:02.826Z,94.10
2023-04-16T22:50:31.299Z,94.20
2023-04-16T22:52:58.563Z,94.20
2023-04-16T22:55:25.608Z,94.10
2023-04-16T22:57:52.503Z,94.20
2023-04-16T23:00:19.463Z,94.10
2023-04-16T23:02:46.502Z,94.20
2023-04-16T23:05:13.486Z,94.20
2023-04-16T23:07:40.481Z,94.20
2023-04-16T23:10:08.666Z,94.20
2023-04-16T23:12:37.448Z,94.20
2023-04-16T23:15:06.620Z,94.30
2023-04-16T23:17:35.024Z,94.30
2023-04-16T23:20:02.974Z,94.30
2023-04-16T23:22:29.877Z,94.40
2023-04-16T23:24:56.854Z,94.30
2023-04-16T23:27:23.807Z,94.30
2023-04-16T23:29:50.696Z,94.30
2023-04-16T23:32:17.656Z,94.20
2023-04-16T23:34:44.570Z,94.20
2023-04-16T23:37:11.615Z,94.10
2023-04-16T23:39:38.548Z,94.10
2023-04-16T23:42:05.468Z,94.00
2023-04-16T23:44:32.396Z,94.00
2023-04-16T23:46:59.551Z,94.00
2023-04-16T23:49:26.516Z,94.00
2023-04-16T23:51:53.451Z,93.90
2023-04-16T23:54:21.382Z,94.00
2023-04-16T23:56:48.485Z,94.00
2023-04-16T23:59:16.682Z,94.10
